createdAt,value
2023-05-11T00:01:50.024Z,1.88
2023-05-11T00:04:17.164Z,1.40
2023-05-11T00:06:43.973Z,1.60
2023-05-11T00:09:11.599Z,1.20
2023-05-11T00:11:38.508Z,1.35
2023-05-11T00:14:05.416Z,1.40
2023-05-11T00:16:32.268Z,1.77
2023-05-11T00:18:59.232Z,1.70
2023-05-11T00:21:26.467Z,1.70
2023-05-11T00:23:53.323Z,1.88
2023-05-11T00:26:20.159Z,2.13
2023-05-11T00:28:47.084Z,1.73
2023-05-11T00:31:13.985Z,1.92
2023-05-11T00:33:41.004Z,1.77
2023-05-11T00:36:08.994Z,1.75
2023-05-11T00:38:36.918Z,2.05
2023-05-11T00:41:03.730Z,1.83
2023-05-11T00:43:30.544Z,1.33
2023-05-11T00:45:57.438Z,1.60
2023-05-11T00:48:24.789Z,1.13
2023-05-11T00:50:51.808Z,1.17
2023-05-11T00:53:18.811Z,1.30
2023-05-11T00:55:45.887Z,1.13
2023-05-11T00:58:12.791Z,1.02
2023-05-11T01:00:39.789Z,1.25
2023-05-11T01:03:07.412Z,1.30
2023-05-11T01:06:09.357Z,1.17
2023-05-11T01:08:51.216Z,1.48
2023-05-11T01:11:40.713Z,1.17
2023-05-11T01:14:23.304Z,1.45
2023-05-11T01:16:57.186Z,1.20
2023-05-11T01:19:39.770Z,1.02
2023-05-11T01:22:29.026Z,1.00
2023-05-11T01:25:04.734Z,0.95
2023-05-11T01:28:09.768Z,0.98
2023-05-11T01:30:55.162Z,0.90
2023-05-11T01:33:34.241Z,0.73
2023-05-11T01:36:07.569Z,0.98
2023-05-11T01:38:37.658Z,0.93
2023-05-11T01:41:22.445Z,0.63
2023-05-11T01:43:55.851Z,1.05
2023-05-11T01:46:26.979Z,0.85
2023-05-11T01:48:57.212Z,0.83
2023-05-11T01:51:27.956Z,0.75
2023-05-11T01:53:56.640Z,1.17
2023-05-11T01:56:25.140Z,1.13
2023-05-11T01:58:54.180Z,1.15
2023-05-11T02:01:21.804Z,0.70
2023-05-11T02:03:50.164Z,0.52
2023-05-11T02:06:19.262Z,0.80
2023-05-11T02:08:48.289Z,0.63
2023-05-11T02:11:16.239Z,0.55
2023-05-11T02:13:46.921Z,0.68
2023-05-11T02:16:16.512Z,0.57
2023-05-11T02:18:43.966Z,0.68
2023-05-11T02:21:12.045Z,0.75
2023-05-11T02:23:40.083Z,0.70
2023-05-11T02:26:08.602Z,0.68
2023-05-11T02:28:36.146Z,0.68
2023-05-11T02:31:09.960Z,0.70
2023-05-11T02:33:43.083Z,1.15
2023-05-11T02:36:14.580Z,0.52
2023-05-11T02:38:43.463Z,0.70
2023-05-11T02:41:14.052Z,0.85
2023-05-11T02:43:49.280Z,0.65
2023-05-11T02:46:20.305Z,0.57
2023-05-11T02:48:55.270Z,0.50
2023-05-11T02:51:39.582Z,0.60
2023-05-11T02:54:10.876Z,0.73
2023-05-11T02:56:39.176Z,0.77
2023-05-11T02:59:06.356Z,0.45
2023-05-11T03:01:34.121Z,0.80
2023-05-11T03:04:04.806Z,0.70
2023-05-11T03:06:33.300Z,0.70
2023-05-11T03:09:01.821Z,0.60
2023-05-11T03:11:29.180Z,0.40
2023-05-11T03:13:56.581Z,0.57
2023-05-11T03:16:24.571Z,0.70
2023-05-11T03:18:51.998Z,0.57
2023-05-11T03:21:21.519Z,0.60
2023-05-11T03:23:49.516Z,0.80
2023-05-11T03:26:18.879Z,0.40
2023-05-11T03:28:47.163Z,0.43
2023-05-11T03:31:14.233Z,0.63
2023-05-11T03:33:41.080Z,0.57
2023-05-11T03:36:10.618Z,0.60
2023-05-11T03:38:38.728Z,0.40
2023-05-11T03:41:05.970Z,0.60
2023-05-11T03:43:36.316Z,0.90
2023-05-11T03:46:05.064Z,0.50
2023-05-11T03:48:32.896Z,0.70
2023-05-11T03:51:00.295Z,0.60
2023-05-11T03:53:27.377Z,0.85
2023-05-11T03:55:54.902Z,0.60
2023-05-11T03:58:22.902Z,0.93
2023-05-11T04:00:50.173Z,0.68
2023-05-11T04:03:17.188Z,1.15
2023-05-11T04:05:44.165Z,0.40
2023-05-11T04:08:11.412Z,0.45
2023-05-11T04:10:38.434Z,0.63
2023-05-11T04:13:05.449Z,0.80
2023-05-11T04:15:32.309Z,0.63
2023-05-11T04:17:59.210Z,0.60
2023-05-11T04:20:26.222Z,0.52
2023-05-11T04:22:53.059Z,0.47
2023-05-11T04:25:20.092Z,0.57
2023-05-11T04:27:47.063Z,0.95
2023-05-11T04:30:14.132Z,0.73
2023-05-11T04:32:41.103Z,0.60
2023-05-11T04:35:08.387Z,0.63
2023-05-11T04:37:35.364Z,0.70
2023-05-11T04:40:02.168Z,0.70
2023-05-11T04:42:30.449Z,0.90
2023-05-11T04:44:57.262Z,0.75
2023-05-11T04:47:24.221Z,0.90
2023-05-11T04:49:52.011Z,0.90
2023-05-11T04:52:19.091Z,0.80
2023-05-11T04:54:45.927Z,0.73
2023-05-11T04:57:12.777Z,0.90
2023-05-11T04:59:39.667Z,1.08
2023-05-11T05:02:09.087Z,1.10
2023-05-11T05:04:36.570Z,1.15
2023-05-11T05:07:04.500Z,0.90
2023-05-11T05:09:31.384Z,0.90
2023-05-11T05:11:58.289Z,1.13
2023-05-11T05:14:25.122Z,1.00
2023-05-11T05:16:54.651Z,0.90
2023-05-11T05:19:21.574Z,0.93
2023-05-11T05:21:48.479Z,1.00
2023-05-11T05:24:15.515Z,1.33
2023-05-11T05:26:42.342Z,1.08
2023-05-11T05:29:09.402Z,1.20
2023-05-11T05:31:36.332Z,1.00
2023-05-11T05:34:03.183Z,1.42
2023-05-11T05:36:30.196Z,1.10
2023-05-11T05:38:57.202Z,1.15
2023-05-11T05:41:24.140Z,0.88
2023-05-11T05:43:51.775Z,0.90
2023-05-11T05:46:18.783Z,1.55
2023-05-11T05:48:45.813Z,0.88
2023-05-11T05:51:12.839Z,1.50
2023-05-11T05:53:39.617Z,1.00
2023-05-11T05:56:07.207Z,1.23
2023-05-11T05:58:34.067Z,1.23
2023-05-11T06:01:01.700Z,1.10
2023-05-11T06:03:29.703Z,1.30
2023-05-11T06:05:57.028Z,1.00
2023-05-11T06:08:24.060Z,3.03
2023-05-11T06:10:51.111Z,1.50
2023-05-11T06:13:18.057Z,1.05
2023-05-11T06:15:45.105Z,1.00
2023-05-11T06:18:12.074Z,0.85
2023-05-11T06:20:39.051Z,0.85
2023-05-11T06:23:06.105Z,0.70
2023-05-11T06:25:36.025Z,0.80
2023-05-11T06:28:03.097Z,0.80
2023-05-11T06:30:31.328Z,0.52
2023-05-11T06:32:58.335Z,0.50
2023-05-11T06:35:25.626Z,0.77
2023-05-11T06:37:52.614Z,0.63
2023-05-11T06:40:20.016Z,0.40
2023-05-11T06:42:47.106Z,0.50
2023-05-11T06:45:14.086Z,0.50
2023-05-11T06:47:41.717Z,0.50
2023-05-11T06:50:09.854Z,0.60
2023-05-11T06:52:36.666Z,0.20
2023-05-11T06:55:07.079Z,0.43
2023-05-11T06:57:33.871Z,0.45
2023-05-11T07:02:28.787Z,0.40
2023-05-11T07:04:55.870Z,0.30
2023-05-11T07:07:22.960Z,0.22
2023-05-11T07:09:49.907Z,0.40
2023-05-11T07:12:17.206Z,0.20
2023-05-11T07:14:44.065Z,0.30
2023-05-11T07:17:11.128Z,0.25
2023-05-11T07:19:38.244Z,0.40
2023-05-11T07:22:05.920Z,0.40
2023-05-11T07:24:33.032Z,0.40
2023-05-11T07:27:00.840Z,0.50
2023-05-11T07:29:27.815Z,0.20
2023-05-11T07:31:54.734Z,0.30
2023-05-11T07:34:21.597Z,0.20
2023-05-11T07:36:48.471Z,0.40
2023-05-11T07:39:17.149Z,0.40
2023-05-11T07:41:44.054Z,0.63
2023-05-11T07:44:11.405Z,0.40
2023-05-11T07:46:38.231Z,0.40
2023-05-11T07:49:15.797Z,0.43
2023-05-11T07:51:45.585Z,0.20
2023-05-11T07:54:12.493Z,0.47
2023-05-11T07:56:39.371Z,0.30
2023-05-11T07:59:06.177Z,0.40
2023-05-11T08:01:33.447Z,0.50
2023-05-11T08:04:00.956Z,0.30
2023-05-11T08:06:28.107Z,0.40
2023-05-11T08:08:54.972Z,0.40
2023-05-11T08:11:21.870Z,0.70
2023-05-11T08:13:48.815Z,0.47
2023-05-11T08:16:16.049Z,0.35
2023-05-11T08:18:46.759Z,0.40
2023-05-11T08:21:14.544Z,0.55
2023-05-11T08:23:42.933Z,0.40
2023-05-11T08:26:15.432Z,0.50
2023-05-11T08:28:42.402Z,0.55
2023-05-11T08:31:09.263Z,0.60
2023-05-11T08:33:38.711Z,0.77
2023-05-11T08:36:07.191Z,0.52
2023-05-11T08:38:36.780Z,0.60
2023-05-11T08:41:04.984Z,0.40
2023-05-11T08:43:36.112Z,0.70
2023-05-11T08:46:07.887Z,0.40
2023-05-11T08:48:35.082Z,0.65
2023-05-11T08:51:04.342Z,0.40
2023-05-11T08:53:31.561Z,0.50
2023-05-11T08:56:01.128Z,0.60
2023-05-11T08:58:28.267Z,0.32
2023-05-11T09:00:55.791Z,0.35
2023-05-11T09:03:23.125Z,0.30
2023-05-11T09:05:50.535Z,0.57
2023-05-11T09:08:24.176Z,0.45
2023-05-11T09:10:52.021Z,0.50
2023-05-11T09:13:19.169Z,0.60
2023-05-11T09:15:45.980Z,0.40
2023-05-11T09:18:13.522Z,0.40
2023-05-11T09:20:46.558Z,0.52
2023-05-11T09:23:17.588Z,0.40
2023-05-11T09:25:44.840Z,0.70
2023-05-11T09:28:24.835Z,0.60
2023-05-11T09:30:52.514Z,0.50
2023-05-11T09:33:26.179Z,0.60
2023-05-11T09:35:53.757Z,0.35
2023-05-11T09:38:20.798Z,0.50
2023-05-11T09:40:53.318Z,0.43
2023-05-11T09:43:25.204Z,0.50
2023-05-11T09:46:07.244Z,0.55
2023-05-11T09:48:35.325Z,0.30
2023-05-11T09:51:07.383Z,0.30
2023-05-11T09:53:43.552Z,0.30
2023-05-11T09:56:11.109Z,0.40
2023-05-11T09:59:14.086Z,0.30
2023-05-11T10:08:11.752Z,0.30
2023-05-11T10:10:53.329Z,0.30
2023-05-11T10:13:27.309Z,0.20
2023-05-11T10:17:04.121Z,0.22
2023-05-11T10:19:33.001Z,0.40
2023-05-11T10:22:05.423Z,0.40
2023-05-11T10:24:38.115Z,0.88
2023-05-11T10:27:09.073Z,0.60
2023-05-11T10:29:41.874Z,1.00
2023-05-11T10:32:16.280Z,0.43
2023-05-11T10:37:51.949Z,0.30
2023-05-11T10:40:19.115Z,0.30
2023-05-11T10:42:53.936Z,0.40
2023-05-11T10:45:52.190Z,0.45
2023-05-11T10:48:37.089Z,0.28
2023-05-11T10:51:25.374Z,0.30
2023-05-11T10:54:11.020Z,0.40
2023-05-11T10:56:57.440Z,0.47
2023-05-11T10:59:49.186Z,0.40
2023-05-11T11:02:18.685Z,0.40
2023-05-11T11:04:51.234Z,0.52
2023-05-11T11:07:19.910Z,0.40
2023-05-11T11:09:52.820Z,0.57
2023-05-11T11:12:21.254Z,0.50
2023-05-11T11:15:04.393Z,0.40
2023-05-11T11:17:32.978Z,0.50
2023-05-11T11:20:07.556Z,0.80
2023-05-11T11:22:38.722Z,0.40
2023-05-11T11:25:10.045Z,0.55
2023-05-11T11:27:46.178Z,0.60
2023-05-11T11:30:30.872Z,0.68
2023-05-11T11:33:10.405Z,0.40
2023-05-11T11:35:43.131Z,0.50
2023-05-11T11:38:11.567Z,0.45
2023-05-11T11:40:49.499Z,0.60
2023-05-11T11:43:19.670Z,0.40
2023-05-11T11:46:02.168Z,0.57
2023-05-11T11:48:32.211Z,0.30
2023-05-11T11:51:13.871Z,0.50
2023-05-11T11:53:44.657Z,0.50
2023-05-11T11:56:14.507Z,0.30
2023-05-11T11:58:58.581Z,0.40
2023-05-11T12:01:28.498Z,0.50
2023-05-11T12:04:04.706Z,0.60
2023-05-11T12:06:40.420Z,0.88
2023-05-11T12:09:08.591Z,0.60
2023-05-11T12:11:35.618Z,0.90
2023-05-11T12:14:03.078Z,1.02
2023-05-11T12:16:30.526Z,0.90
2023-05-11T12:19:01.729Z,1.10
2023-05-11T12:21:33.807Z,1.00
2023-05-11T12:24:03.069Z,0.90
2023-05-11T12:26:31.729Z,0.90
2023-05-11T12:29:12.826Z,0.77
2023-05-11T12:31:44.213Z,0.57
2023-05-11T12:34:18.972Z,0.70
2023-05-11T12:36:46.826Z,0.40
2023-05-11T12:39:20.994Z,0.60
2023-05-11T12:41:49.830Z,0.63
2023-05-11T12:44:17.943Z,0.75
2023-05-11T12:46:48.745Z,0.65
2023-05-11T12:49:25.884Z,0.70
2023-05-11T12:52:00.028Z,0.47
2023-05-11T12:54:38.271Z,0.50
2023-05-11T12:57:07.741Z,0.47
2023-05-11T12:59:41.013Z,0.80
2023-05-11T13:02:12.231Z,0.40
2023-05-11T13:04:40.953Z,0.60
2023-05-11T13:07:08.154Z,0.68
2023-05-11T13:09:35.125Z,0.90
2023-05-11T13:12:18.500Z,0.43
2023-05-11T13:14:47.822Z,0.63
2023-05-11T13:17:32.312Z,0.60
2023-05-11T13:20:18.026Z,0.40
2023-05-11T13:22:45.617Z,0.70
2023-05-11T13:25:14.029Z,0.50
2023-05-11T13:27:40.830Z,0.40
2023-05-11T13:30:08.492Z,0.52
2023-05-11T13:32:36.996Z,1.02
2023-05-11T13:35:04.746Z,0.50
2023-05-11T13:37:32.383Z,0.70
2023-05-11T13:40:00.829Z,0.90
2023-05-11T13:42:28.035Z,0.52
2023-05-11T13:44:54.966Z,0.50
2023-05-11T13:47:21.870Z,0.40
2023-05-11T13:49:49.070Z,0.57
2023-05-11T13:52:15.977Z,0.75
2023-05-11T13:54:42.728Z,0.82
2023-05-11T13:57:09.678Z,0.70
2023-05-11T13:59:36.480Z,0.77
2023-05-11T14:02:03.576Z,0.60
2023-05-11T14:04:30.808Z,0.70
2023-05-11T14:06:58.558Z,0.70
2023-05-11T14:09:25.407Z,0.65
2023-05-11T14:11:52.353Z,0.90
2023-05-11T14:14:19.190Z,0.60
2023-05-11T14:16:46.070Z,0.60
2023-05-11T14:19:13.008Z,0.68
2023-05-11T14:21:40.050Z,1.05
2023-05-11T14:24:12.064Z,0.73
2023-05-11T14:26:40.399Z,1.05
2023-05-11T14:29:07.621Z,1.00
2023-05-11T14:31:35.870Z,0.77
2023-05-11T14:34:03.904Z,0.60
2023-05-11T14:36:31.825Z,0.50
2023-05-11T14:38:58.722Z,0.43
2023-05-11T14:41:25.828Z,0.60
2023-05-11T14:43:53.676Z,0.63
2023-05-11T14:46:21.796Z,0.40
2023-05-11T14:48:48.901Z,0.65
2023-05-11T14:51:15.742Z,0.50
2023-05-11T14:53:42.594Z,0.63
2023-05-11T14:56:09.529Z,0.50
2023-05-11T14:58:36.471Z,0.68
2023-05-11T15:01:04.036Z,0.40
2023-05-11T15:03:31.278Z,0.65
2023-05-11T15:05:58.148Z,0.50
2023-05-11T15:08:30.107Z,0.40
2023-05-11T15:10:58.009Z,0.82
2023-05-11T15:13:25.088Z,0.75
2023-05-11T15:15:52.124Z,1.10
2023-05-11T15:18:19.287Z,0.80
2023-05-11T15:20:46.841Z,0.60
2023-05-11T15:23:16.968Z,0.55
2023-05-11T15:25:45.076Z,0.50
2023-05-11T15:28:12.438Z,0.70
2023-05-11T15:30:41.437Z,0.70
2023-05-11T15:33:10.069Z,0.90
2023-05-11T15:35:37.844Z,0.80
2023-05-11T15:38:04.910Z,0.73
2023-05-11T15:40:32.458Z,0.57
2023-05-11T15:42:59.389Z,0.50
2023-05-11T15:45:26.470Z,0.60
2023-05-11T15:47:54.291Z,0.57
2023-05-11T15:50:21.752Z,0.68
2023-05-11T15:52:48.948Z,0.75
2023-05-11T15:55:15.970Z,0.60
2023-05-11T15:57:42.772Z,0.50
2023-05-11T16:00:10.470Z,0.50
2023-05-11T16:02:37.575Z,0.50
2023-05-11T16:05:04.652Z,0.43
2023-05-11T16:07:31.569Z,0.70
2023-05-11T16:09:58.588Z,0.75
2023-05-11T16:12:26.092Z,0.40
2023-05-11T16:14:52.878Z,0.40
2023-05-11T16:17:19.780Z,0.50
2023-05-11T16:19:46.563Z,0.80
2023-05-11T16:22:13.335Z,0.68
2023-05-11T16:24:40.173Z,0.60
2023-05-11T16:27:07.021Z,0.70
2023-05-11T16:29:33.808Z,0.30
2023-05-11T16:32:00.907Z,0.28
2023-05-11T16:34:28.023Z,0.38
2023-05-11T16:36:56.669Z,0.22
2023-05-11T16:39:26.775Z,0.30
2023-05-11T16:41:53.541Z,0.68
2023-05-11T16:44:20.311Z,0.50
2023-05-11T16:46:47.822Z,0.30
2023-05-11T16:49:14.617Z,0.38
2023-05-11T16:51:41.638Z,0.60
2023-05-11T16:54:08.543Z,0.47
2023-05-11T16:56:35.282Z,0.50
2023-05-11T16:59:02.186Z,0.50
2023-05-11T17:01:29.127Z,0.73
2023-05-11T17:03:56.106Z,0.60
2023-05-11T17:06:24.033Z,0.60
2023-05-11T17:08:51.351Z,0.77
2023-05-11T17:11:18.154Z,0.80
2023-05-11T17:13:45.017Z,3.25
2023-05-11T17:16:11.947Z,1.70
2023-05-11T17:18:38.856Z,1.20
2023-05-11T17:21:05.965Z,1.10
2023-05-11T17:23:34.075Z,1.40
2023-05-11T17:26:10.295Z,1.48
2023-05-11T17:28:38.118Z,1.63
2023-05-11T17:31:19.638Z,1.48
2023-05-11T17:33:49.192Z,1.60
2023-05-11T17:36:18.748Z,1.98
2023-05-11T17:38:45.483Z,1.27
2023-05-11T17:41:12.532Z,1.75
2023-05-11T17:43:39.355Z,1.20
2023-05-11T17:46:09.182Z,0.95
2023-05-11T17:48:36.337Z,0.95
2023-05-11T17:51:03.216Z,1.13
2023-05-11T17:53:30.031Z,1.42
2023-05-11T17:56:00.319Z,3.05
2023-05-11T17:58:27.077Z,1.95
2023-05-11T18:00:53.905Z,1.77
2023-05-11T18:03:21.120Z,1.50
2023-05-11T18:05:49.240Z,2.00
2023-05-11T18:08:17.890Z,1.42
2023-05-11T18:10:47.263Z,1.30
2023-05-11T18:13:15.263Z,1.95
2023-05-11T18:15:44.376Z,1.40
2023-05-11T18:18:16.805Z,1.45
2023-05-11T18:20:46.354Z,1.38
2023-05-11T18:23:14.206Z,1.10
2023-05-11T18:25:41.183Z,1.17
2023-05-11T18:28:07.993Z,2.25
2023-05-11T18:30:35.757Z,1.10
2023-05-11T18:33:02.688Z,1.63
2023-05-11T18:35:30.122Z,1.40
2023-05-11T18:37:59.543Z,1.80
2023-05-11T18:40:27.321Z,1.10
2023-05-11T18:42:54.233Z,1.50
2023-05-11T18:45:21.052Z,1.42
2023-05-11T18:47:47.949Z,1.92
2023-05-11T18:50:14.769Z,1.63
2023-05-11T18:52:41.668Z,1.30
2023-05-11T18:55:09.058Z,1.58
2023-05-11T18:57:40.313Z,1.80
2023-05-11T19:00:07.935Z,1.30
2023-05-11T19:02:34.846Z,1.15
2023-05-11T19:05:01.782Z,1.30
2023-05-11T19:07:28.704Z,1.02
2023-05-11T19:09:56.430Z,1.05
2023-05-11T19:12:23.404Z,1.10
2023-05-11T19:14:50.203Z,1.88
2023-05-11T19:17:16.948Z,1.30
2023-05-11T19:19:43.855Z,1.13
2023-05-11T19:22:10.617Z,1.30
2023-05-11T19:24:37.388Z,1.02
2023-05-11T19:27:07.782Z,1.38
2023-05-11T19:29:35.450Z,1.83
2023-05-11T19:32:02.790Z,1.55
2023-05-11T19:34:29.732Z,1.30
2023-05-11T19:36:56.489Z,2.03
2023-05-11T19:39:24.510Z,2.70
2023-05-11T19:41:51.323Z,2.67
2023-05-11T19:44:18.801Z,3.08
2023-05-11T19:46:47.071Z,3.63
2023-05-11T19:49:15.334Z,2.95
2023-05-11T19:51:43.439Z,2.95
2023-05-11T19:54:11.464Z,3.55
2023-05-11T19:56:39.327Z,3.25
2023-05-11T19:59:06.152Z,2.97
2023-05-11T20:01:33.127Z,3.33
2023-05-11T20:04:00.111Z,3.03
2023-05-11T20:06:27.114Z,3.20
2023-05-11T20:08:54.333Z,3.30
2023-05-11T20:11:22.253Z,3.55
2023-05-11T20:13:49.278Z,3.40
2023-05-11T20:16:16.171Z,3.08
2023-05-11T20:18:43.154Z,2.83
2023-05-11T20:21:10.170Z,2.50
2023-05-11T20:23:37.715Z,2.60
2023-05-11T20:26:04.885Z,2.65
2023-05-11T20:28:32.085Z,2.83
2023-05-11T20:30:59.083Z,2.47
2023-05-11T20:35:59.107Z,2.85
2023-05-11T20:38:25.910Z,2.78
2023-05-11T20:40:57.979Z,2.63
2023-05-11T20:45:55.154Z,2.97
2023-05-11T20:48:32.471Z,3.33
2023-05-11T20:51:06.301Z,3.80
2023-05-11T20:53:33.434Z,4.18
2023-05-11T20:56:03.402Z,4.20
2023-05-11T20:58:31.521Z,4.05
2023-05-11T21:00:58.629Z,4.15
2023-05-11T21:03:26.858Z,4.30
2023-05-11T21:05:56.335Z,3.97
2023-05-11T21:08:26.033Z,4.85
2023-05-11T21:10:53.227Z,5.05
2023-05-11T21:13:20.180Z,5.20
2023-05-11T21:15:46.931Z,5.18
2023-05-11T21:18:13.750Z,5.57
2023-05-11T21:20:43.572Z,5.25
2023-05-11T21:23:10.512Z,5.65
2023-05-11T21:25:39.785Z,5.50
2023-05-11T21:28:09.319Z,5.72
2023-05-11T21:30:36.100Z,4.97
2023-05-11T21:33:03.146Z,5.85
2023-05-11T21:35:29.908Z,5.13
2023-05-11T21:37:57.638Z,5.07
2023-05-11T21:40:24.393Z,6.50
2023-05-11T21:42:51.216Z,6.40
2023-05-11T21:45:19.871Z,6.43
2023-05-11T21:47:46.927Z,6.95
2023-05-11T21:50:13.945Z,7.30
2023-05-11T21:52:41.151Z,6.88
2023-05-11T21:55:08.415Z,7.90
2023-05-11T21:57:35.494Z,7.55
2023-05-11T22:00:02.411Z,6.88
2023-05-11T22:02:29.795Z,9.15
2023-05-11T22:04:56.768Z,7.70
2023-05-11T22:07:23.576Z,6.80
2023-05-11T22:09:50.861Z,6.70
2023-05-11T22:12:17.613Z,8.40
2023-05-11T22:22:20.109Z,8.77
2023-05-11T22:36:11.782Z,10.50
2023-05-11T22:38:39.036Z,10.50
2023-05-11T22:41:06.441Z,10.18
2023-05-11T22:43:34.131Z,11.75
2023-05-11T22:46:00.927Z,11.55
2023-05-11T22:48:27.808Z,11.73
2023-05-11T22:50:54.735Z,11.63
2023-05-11T22:53:22.999Z,11.68
2023-05-11T22:55:49.855Z,10.68
2023-05-11T22:58:17.177Z,10.88
2023-05-11T23:00:43.975Z,11.80
2023-05-11T23:03:10.994Z,9.77
2023-05-11T23:05:37.995Z,10.95
2023-05-11T23:08:04.811Z,10.70
2023-05-11T23:48:26.275Z,12.73
2023-05-11T23:55:14.734Z,12.15
2023-05-11T23:57:41.876Z,13.68
